createdAt,value
2022-12-07T00:01:34.968Z,47.85
2022-12-07T00:04:07.657Z,42.20
2022-12-07T00:06:39.647Z,39.85
2022-12-07T00:09:10.441Z,48.10
2022-12-07T00:11:37.580Z,43.65
2022-12-07T00:14:08.817Z,46.20
2022-12-07T00:16:36.016Z,41.27
2022-12-07T00:19:04.075Z,43.80
2022-12-07T00:21:33.764Z,40.63
2022-12-07T00:24:01.524Z,43.38
2022-12-07T00:26:30.637Z,37.72
2022-12-07T00:29:00.152Z,36.38
2022-12-07T00:31:30.574Z,37.60
2022-12-07T00:33:58.576Z,49.50
2022-12-07T00:36:27.414Z,38.22
2022-12-07T00:38:55.939Z,48.00
2022-12-07T00:41:24.923Z,46.35
2022-12-07T00:43:52.366Z,43.38
2022-12-07T00:46:21.039Z,47.40
2022-12-07T00:48:49.535Z,44.05
2022-12-07T00:51:19.147Z,44.55
2022-12-07T00:53:46.025Z,47.20
2022-12-07T00:56:18.377Z,45.28
2022-12-07T01:01:12.624Z,42.33
2022-12-07T01:03:39.971Z,45.13
2022-12-07T01:06:07.175Z,41.97
2022-12-07T01:08:35.246Z,44.17
2022-12-07T01:11:05.131Z,43.10
2022-12-07T01:13:32.997Z,43.53
2022-12-07T01:16:01.433Z,41.17
2022-12-07T01:18:30.335Z,39.35
2022-12-07T01:21:06.390Z,46.88
2022-12-07T01:23:34.335Z,43.72
2022-12-07T01:26:04.913Z,46.35
2022-12-07T01:28:31.777Z,43.33
2022-12-07T01:31:07.458Z,54.42
2022-12-07T01:33:36.642Z,49.10
2022-12-07T01:36:10.706Z,42.55
2022-12-07T01:38:37.366Z,45.30
2022-12-07T01:41:04.457Z,45.05
2022-12-07T01:43:33.083Z,40.28
2022-12-07T01:46:00.642Z,45.92
2022-12-07T01:48:34.534Z,45.45
2022-12-07T01:51:05.388Z,52.03
2022-12-07T01:53:36.713Z,42.28
2022-12-07T01:56:03.936Z,58.13
2022-12-07T01:58:31.177Z,45.33
2022-12-07T02:00:57.833Z,51.03
2022-12-07T02:03:38.647Z,45.92
2022-12-07T02:06:07.730Z,43.13
2022-12-07T02:08:34.995Z,46.08
2022-12-07T02:11:06.462Z,44.38
2022-12-07T02:13:36.022Z,44.90
2022-12-07T02:16:52.400Z,42.42
2022-12-07T02:19:21.626Z,41.00
2022-12-07T02:22:19.507Z,51.83
2022-12-07T02:25:04.887Z,47.67
2022-12-07T02:27:40.896Z,45.28
2022-12-07T02:30:10.207Z,51.55
2022-12-07T02:32:42.379Z,53.85
2022-12-07T02:35:22.938Z,44.25
2022-12-07T02:38:13.364Z,49.33
2022-12-07T02:41:03.558Z,44.63
2022-12-07T02:43:37.158Z,45.35
2022-12-07T02:46:17.473Z,41.83
2022-12-07T02:48:46.434Z,42.10
2022-12-07T02:51:13.411Z,44.05
2022-12-07T02:53:42.582Z,41.10
2022-12-07T02:56:09.461Z,46.65
2022-12-07T02:59:00.837Z,49.85
2022-12-07T03:02:06.394Z,45.22
2022-12-07T03:04:39.278Z,59.42
2022-12-07T03:07:34.951Z,42.20
2022-12-07T03:10:05.189Z,44.28
2022-12-07T03:13:10.319Z,54.40
2022-12-07T03:15:48.428Z,43.65
2022-12-07T03:18:19.587Z,44.25
2022-12-07T03:20:49.306Z,47.95
2022-12-07T03:23:18.886Z,43.47
2022-12-07T03:25:51.946Z,47.63
2022-12-07T03:28:24.694Z,44.60
2022-12-07T03:31:04.437Z,55.50
2022-12-07T03:33:39.447Z,51.42
2022-12-07T03:36:11.614Z,49.72
2022-12-07T03:38:46.165Z,53.75
2022-12-07T03:41:22.240Z,54.75
2022-12-07T03:43:49.868Z,54.97
2022-12-07T03:46:39.298Z,48.10
2022-12-07T03:49:36.716Z,49.38
2022-12-07T03:52:24.653Z,54.53
2022-12-07T03:55:28.027Z,51.78
2022-12-07T03:57:59.211Z,53.55
2022-12-07T04:00:26.247Z,59.55
2022-12-07T04:02:54.309Z,54.00
2022-12-07T04:05:21.167Z,54.10
2022-12-07T04:07:48.033Z,51.83
2022-12-07T04:10:15.210Z,54.13
2022-12-07T04:12:42.334Z,61.60
2022-12-07T04:15:10.710Z,49.97
2022-12-07T04:17:37.350Z,51.28
2022-12-07T04:20:05.615Z,50.33
2022-12-07T04:22:32.420Z,53.63
2022-12-07T04:24:59.022Z,51.45
2022-12-07T04:27:26.158Z,47.80
2022-12-07T04:29:52.769Z,47.10
2022-12-07T04:32:20.769Z,49.03
2022-12-07T04:34:51.407Z,50.80
2022-12-07T04:37:20.929Z,61.58
2022-12-07T04:39:47.918Z,56.72
2022-12-07T04:42:14.673Z,58.42
2022-12-07T04:44:41.335Z,49.83
2022-12-07T04:47:08.049Z,52.97
2022-12-07T04:49:35.137Z,48.83
2022-12-07T04:52:02.054Z,56.95
2022-12-07T04:54:28.736Z,52.20
2022-12-07T04:56:55.426Z,53.83
2022-12-07T04:59:22.124Z,61.40
2022-12-07T05:01:48.828Z,57.10
2022-12-07T05:04:17.144Z,63.42
2022-12-07T05:06:43.772Z,59.38
2022-12-07T05:09:10.797Z,52.53
2022-12-07T05:11:40.434Z,60.38
2022-12-07T05:14:19.012Z,52.25
2022-12-07T05:16:47.593Z,51.03
2022-12-07T05:19:14.616Z,51.47
2022-12-07T05:21:41.722Z,53.10
2022-12-07T05:24:11.097Z,55.30
2022-12-07T05:26:37.788Z,53.67
2022-12-07T05:29:05.922Z,57.47
2022-12-07T05:31:32.748Z,59.03
2022-12-07T05:33:59.505Z,64.05
2022-12-07T05:36:26.249Z,55.22
2022-12-07T05:38:52.841Z,63.88
2022-12-07T05:41:39.124Z,68.07
2022-12-07T05:44:07.094Z,52.33
2022-12-07T05:46:34.615Z,58.55
2022-12-07T05:49:01.780Z,60.03
2022-12-07T05:51:28.547Z,56.95
2022-12-07T05:53:58.928Z,63.42
2022-12-07T05:56:27.655Z,60.08
2022-12-07T05:59:13.207Z,62.55
2022-12-07T06:01:40.091Z,63.97
2022-12-07T06:04:06.930Z,74.80
2022-12-07T06:06:34.342Z,73.97
2022-12-07T06:09:06.309Z,74.53
2022-12-07T06:11:51.682Z,74.85
2022-12-07T06:14:18.286Z,70.05
2022-12-07T06:16:45.255Z,65.93
2022-12-07T06:19:12.271Z,69.03
2022-12-07T06:21:39.089Z,70.50
2022-12-07T06:24:06.180Z,66.90
2022-12-07T06:26:32.934Z,64.50
2022-12-07T06:28:59.602Z,61.58
2022-12-07T06:31:26.525Z,64.07
2022-12-07T06:34:00.980Z,60.53
2022-12-07T06:36:28.163Z,60.22
2022-12-07T06:38:55.750Z,55.72
2022-12-07T06:41:23.145Z,59.28
2022-12-07T06:43:55.565Z,63.47
2022-12-07T06:46:23.731Z,67.95
2022-12-07T06:48:50.922Z,66.13
2022-12-07T06:51:18.596Z,57.05
2022-12-07T06:53:45.370Z,57.35
2022-12-07T06:56:12.060Z,62.90
2022-12-07T06:58:40.739Z,59.67
2022-12-07T07:01:12.917Z,60.72
2022-12-07T07:06:08.700Z,57.28
2022-12-07T07:08:36.655Z,57.28
2022-12-07T07:11:03.575Z,60.28
2022-12-07T07:13:30.844Z,57.33
2022-12-07T07:15:57.616Z,55.15
2022-12-07T07:18:25.198Z,54.33
2022-12-07T07:20:53.372Z,52.38
2022-12-07T07:23:21.186Z,56.40
2022-12-07T07:25:48.687Z,57.05
2022-12-07T07:28:16.689Z,58.35
2022-12-07T07:30:43.696Z,59.53
2022-12-07T07:33:11.856Z,54.50
2022-12-07T07:35:40.076Z,58.70
2022-12-07T07:38:07.920Z,50.63
2022-12-07T07:40:35.230Z,47.13
2022-12-07T07:43:02.501Z,48.50
2022-12-07T07:45:30.604Z,46.42
2022-12-07T07:47:57.461Z,54.75
2022-12-07T07:50:24.328Z,53.72
2022-12-07T07:52:51.167Z,46.40
2022-12-07T07:55:18.047Z,49.08
2022-12-07T07:57:49.696Z,47.95
2022-12-07T08:00:19.872Z,52.65
2022-12-07T08:02:47.758Z,49.85
2022-12-07T08:05:15.258Z,53.28
2022-12-07T08:07:42.828Z,47.45
2022-12-07T08:10:12.675Z,75.05
2022-12-07T08:13:01.531Z,56.35
2022-12-07T08:15:29.966Z,58.47
2022-12-07T08:17:57.251Z,48.60
2022-12-07T08:20:24.534Z,57.17
2022-12-07T08:22:51.265Z,61.13
2022-12-07T08:25:18.151Z,62.90
2022-12-07T08:27:44.816Z,52.05
2022-12-07T08:30:11.761Z,51.78
2022-12-07T08:32:38.407Z,47.58
2022-12-07T08:35:05.782Z,51.40
2022-12-07T08:37:33.488Z,51.63
2022-12-07T08:40:00.333Z,49.83
2022-12-07T08:42:30.895Z,56.45
2022-12-07T08:44:58.521Z,48.08
2022-12-07T08:47:29.807Z,46.15
2022-12-07T08:49:56.807Z,54.50
2022-12-07T08:52:23.800Z,53.60
2022-12-07T08:54:51.561Z,58.10
2022-12-07T08:57:19.603Z,52.55
2022-12-07T08:59:47.045Z,54.40
2022-12-07T09:02:14.349Z,56.70
2022-12-07T09:04:41.096Z,70.65
2022-12-07T09:07:08.190Z,61.67
2022-12-07T09:09:36.259Z,64.40
2022-12-07T09:12:04.003Z,64.00
2022-12-07T09:14:31.525Z,59.50
2022-12-07T09:17:10.144Z,57.92
2022-12-07T09:19:37.319Z,60.17
2022-12-07T09:22:05.891Z,56.75
2022-12-07T09:24:33.333Z,74.10
2022-12-07T09:27:00.859Z,62.38
2022-12-07T09:29:27.834Z,61.33
2022-12-07T09:31:56.941Z,51.35
2022-12-07T09:34:24.547Z,45.85
2022-12-07T09:37:01.314Z,50.35
2022-12-07T09:39:28.575Z,61.35
2022-12-07T09:41:56.065Z,59.15
2022-12-07T09:44:28.285Z,63.63
2022-12-07T09:46:56.365Z,64.90
2022-12-07T09:49:25.381Z,73.55
2022-12-07T09:52:30.250Z,64.88
2022-12-07T09:54:59.185Z,64.78
2022-12-07T09:57:33.557Z,52.25
2022-12-07T10:00:03.614Z,72.45
2022-12-07T10:02:40.647Z,72.22
2022-12-07T10:05:12.260Z,83.70
2022-12-07T10:07:39.603Z,69.32
2022-12-07T10:10:16.656Z,69.68
2022-12-07T10:13:06.258Z,67.13
2022-12-07T10:15:50.792Z,65.88
2022-12-07T10:18:31.602Z,73.28
2022-12-07T10:21:12.255Z,75.25
2022-12-07T10:23:41.876Z,68.90
2022-12-07T10:26:22.893Z,64.53
2022-12-07T10:28:50.258Z,71.05
2022-12-07T10:31:20.863Z,63.35
2022-12-07T10:33:56.717Z,62.80
2022-12-07T10:36:35.732Z,81.03
2022-12-07T10:39:13.668Z,79.20
2022-12-07T10:42:00.975Z,74.00
2022-12-07T10:44:38.252Z,61.47
2022-12-07T10:47:14.255Z,59.08
2022-12-07T10:49:44.571Z,60.28
2022-12-07T10:52:23.674Z,65.40
2022-12-07T10:55:19.861Z,70.15
2022-12-07T10:58:08.562Z,63.22
2022-12-07T11:00:44.792Z,63.75
2022-12-07T11:03:48.723Z,63.63
2022-12-07T11:06:43.597Z,68.05
2022-12-07T11:12:46.273Z,56.65
2022-12-07T11:15:18.957Z,61.35
2022-12-07T11:17:58.450Z,58.53
2022-12-07T11:20:55.536Z,51.38
2022-12-07T11:23:41.678Z,58.55
2022-12-07T11:26:14.177Z,64.20
2022-12-07T11:28:58.036Z,61.00
2022-12-07T11:31:49.783Z,61.60
2022-12-07T11:34:25.437Z,53.30
2022-12-07T11:36:55.229Z,59.13
2022-12-07T11:39:36.638Z,46.45
2022-12-07T11:42:31.338Z,47.03
2022-12-07T11:45:04.148Z,47.10
2022-12-07T11:47:49.441Z,47.42
2022-12-07T11:50:37.661Z,38.08
2022-12-07T11:53:10.755Z,34.10
2022-12-07T11:56:01.432Z,36.70
2022-12-07T11:58:48.822Z,44.97
2022-12-07T12:01:19.118Z,34.92
2022-12-07T12:03:53.481Z,35.58
2022-12-07T12:06:22.685Z,36.95
2022-12-07T12:11:48.483Z,39.78
2022-12-07T12:14:46.721Z,38.83
2022-12-07T12:17:46.690Z,34.17
2022-12-07T12:20:46.247Z,30.65
2022-12-07T12:23:28.646Z,34.22
2022-12-07T12:28:26.056Z,35.53
2022-12-07T12:31:35.711Z,28.98
2022-12-07T12:34:05.741Z,34.50
2022-12-07T12:36:34.097Z,38.95
2022-12-07T12:39:12.057Z,36.97
2022-12-07T12:41:39.393Z,36.55
2022-12-07T12:44:15.553Z,36.67
2022-12-07T12:46:51.655Z,30.13
2022-12-07T12:49:21.628Z,23.92
2022-12-07T12:51:51.320Z,27.80
2022-12-07T12:54:28.181Z,39.13
2022-12-07T12:57:27.752Z,27.35
2022-12-07T12:59:54.531Z,24.45
2022-12-07T13:02:31.137Z,29.65
2022-12-07T13:05:00.408Z,20.98
2022-12-07T13:08:20.590Z,25.90
2022-12-07T13:10:48.812Z,24.05
2022-12-07T13:13:15.586Z,21.25
2022-12-07T13:15:50.252Z,23.60
2022-12-07T13:18:29.121Z,30.98
2022-12-07T13:21:08.153Z,25.30
2022-12-07T13:23:48.008Z,25.50
2022-12-07T13:26:21.321Z,28.27
2022-12-07T13:28:51.314Z,23.35
2022-12-07T13:31:28.381Z,27.38
2022-12-07T13:33:55.978Z,21.98
2022-12-07T13:36:29.292Z,25.23
2022-12-07T13:38:59.392Z,40.47
2022-12-07T13:41:28.823Z,32.03
2022-12-07T13:44:10.044Z,33.33
2022-12-07T13:46:51.440Z,40.13
2022-12-07T13:49:30.783Z,34.45
2022-12-07T13:52:14.108Z,27.42
2022-12-07T13:54:47.692Z,35.35
2022-12-07T13:57:14.833Z,30.50
2022-12-07T13:59:42.023Z,33.53
2022-12-07T14:02:34.331Z,31.17
2022-12-07T14:05:16.339Z,32.67
2022-12-07T14:08:00.249Z,32.65
2022-12-07T14:10:30.176Z,30.70
2022-12-07T14:12:57.857Z,30.92
2022-12-07T14:15:33.897Z,28.02
2022-12-07T14:18:04.996Z,39.25
2022-12-07T14:20:37.221Z,29.08
2022-12-07T14:23:11.983Z,28.05
2022-12-07T14:25:51.874Z,35.65
2022-12-07T14:28:34.001Z,45.13
2022-12-07T14:31:02.285Z,33.50
2022-12-07T14:33:29.943Z,34.85
2022-12-07T14:35:59.214Z,31.95
2022-12-07T14:38:27.413Z,37.42
2022-12-07T14:40:56.005Z,40.42
2022-12-07T14:43:23.254Z,42.95
2022-12-07T14:45:50.536Z,37.38
2022-12-07T14:53:57.195Z,43.10
2022-12-07T14:56:26.516Z,44.80
2022-12-07T14:58:53.426Z,45.17
2022-12-07T15:01:20.688Z,45.95
2022-12-07T15:03:47.746Z,36.25
2022-12-07T15:06:17.340Z,40.53
2022-12-07T15:08:45.853Z,44.15
2022-12-07T15:11:18.069Z,43.15
2022-12-07T15:16:52.318Z,46.85
2022-12-07T15:19:29.247Z,40.22
2022-12-07T15:21:56.840Z,49.55
2022-12-07T15:24:25.349Z,48.40
2022-12-07T15:26:53.380Z,52.20
2022-12-07T15:29:23.121Z,50.58
2022-12-07T15:31:59.057Z,45.38
2022-12-07T15:34:34.779Z,39.55
2022-12-07T15:37:05.242Z,44.05
2022-12-07T15:39:32.571Z,43.97
2022-12-07T15:41:59.831Z,44.90
2022-12-07T15:44:45.097Z,62.75
2022-12-07T15:47:12.256Z,49.60
2022-12-07T15:49:39.669Z,49.92
2022-12-07T15:52:07.208Z,50.10
2022-12-07T15:54:34.611Z,51.10
2022-12-07T15:57:02.083Z,45.20
2022-12-07T15:59:30.072Z,50.10
2022-12-07T16:01:57.234Z,69.75
2022-12-07T16:04:24.434Z,59.03
2022-12-07T16:06:52.073Z,55.17
2022-12-07T16:09:20.723Z,55.78
2022-12-07T16:11:47.627Z,59.78
2022-12-07T16:14:14.705Z,47.22
2022-12-07T16:16:45.639Z,61.88
2022-12-07T16:19:12.557Z,68.22
2022-12-07T16:21:39.758Z,86.95
2022-12-07T16:24:07.517Z,71.35
2022-12-07T16:26:34.801Z,72.85
2022-12-07T16:29:01.722Z,64.72
2022-12-07T16:31:29.900Z,76.22
2022-12-07T16:33:58.961Z,86.65
2022-12-07T16:39:15.941Z,77.72
2022-12-07T16:41:44.239Z,84.00
2022-12-07T16:44:13.734Z,97.70
2022-12-07T16:46:41.621Z,111.65
2022-12-07T16:49:15.204Z,83.55
2022-12-07T16:51:44.196Z,93.15
2022-12-07T16:54:13.061Z,63.35
2022-12-07T16:56:40.630Z,72.45
2022-12-07T16:59:07.979Z,74.25
2022-12-07T17:01:35.597Z,69.45
2022-12-07T17:04:03.623Z,62.28
2022-12-07T17:06:32.341Z,66.88
2022-12-07T17:09:00.097Z,77.13
2022-12-07T17:11:34.002Z,86.45
2022-12-07T17:14:19.607Z,79.38
2022-12-07T17:16:47.011Z,85.28
2022-12-07T17:19:16.671Z,94.32
2022-12-07T17:21:44.333Z,82.70
2022-12-07T17:24:14.020Z,98.22
2022-12-07T17:26:42.077Z,86.30
2022-12-07T17:29:13.175Z,89.95
2022-12-07T17:31:42.814Z,89.03
2022-12-07T17:34:14.360Z,87.28
2022-12-07T17:36:41.908Z,82.05
2022-12-07T17:39:15.894Z,86.40
2022-12-07T17:42:01.177Z,90.70
2022-12-07T17:44:32.003Z,84.68
2022-12-07T17:46:59.394Z,95.30
2022-12-07T17:49:27.703Z,94.05
2022-12-07T17:52:13.807Z,80.47
2022-12-07T17:54:41.763Z,87.93
2022-12-07T17:57:10.185Z,90.57
2022-12-07T17:59:38.361Z,90.32
2022-12-07T18:02:05.978Z,79.18
2022-12-07T18:04:34.176Z,55.03
2022-12-07T18:07:01.132Z,63.53
2022-12-07T18:09:28.366Z,63.33
2022-12-07T18:11:55.581Z,65.55
2022-12-07T18:14:23.147Z,64.38
2022-12-07T18:16:50.451Z,58.17
2022-12-07T18:19:17.764Z,68.40
2022-12-07T18:21:45.814Z,72.13
2022-12-07T18:24:14.510Z,64.85
2022-12-07T18:26:43.114Z,72.35
2022-12-07T18:29:14.745Z,62.22
2022-12-07T18:31:42.445Z,60.88
2022-12-07T18:34:12.406Z,58.30
2022-12-07T18:36:48.214Z,54.30
2022-12-07T18:39:16.801Z,48.05
2022-12-07T18:41:44.254Z,44.08
2022-12-07T18:44:13.357Z,53.33
2022-12-07T18:46:42.436Z,47.42
2022-12-07T18:49:14.131Z,63.45
2022-12-07T18:51:42.119Z,55.15
2022-12-07T18:54:09.994Z,61.65
2022-12-07T18:56:37.489Z,48.03
2022-12-07T18:59:25.046Z,53.85
2022-12-07T19:01:54.879Z,62.28
2022-12-07T19:04:23.743Z,56.22
2022-12-07T19:06:51.678Z,66.57
2022-12-07T19:09:19.544Z,70.28
2022-12-07T19:11:49.637Z,76.68
2022-12-07T19:14:38.076Z,81.20
2022-12-07T19:17:11.195Z,87.00
2022-12-07T19:19:41.189Z,71.95
2022-12-07T19:22:09.008Z,74.97
2022-12-07T19:24:37.494Z,69.35
2022-12-07T19:27:06.617Z,63.05
2022-12-07T19:29:34.476Z,64.72
2022-12-07T19:32:03.160Z,50.97
2022-12-07T19:34:30.254Z,54.80
2022-12-07T19:36:57.759Z,61.72
2022-12-07T19:39:27.759Z,50.92
2022-12-07T19:41:55.107Z,49.92
2022-12-07T19:44:25.626Z,59.05
2022-12-07T19:47:04.335Z,59.50
2022-12-07T19:49:34.608Z,43.80
2022-12-07T19:52:04.588Z,47.05
2022-12-07T19:54:31.916Z,52.83
2022-12-07T19:56:59.400Z,45.10
2022-12-07T19:59:29.652Z,49.88
2022-12-07T20:01:57.113Z,48.40
2022-12-07T20:04:29.814Z,48.55
2022-12-07T20:07:00.115Z,52.55
2022-12-07T20:09:28.292Z,53.15
2022-12-07T20:12:13.922Z,47.65
2022-12-07T20:14:40.836Z,47.17
2022-12-07T20:17:07.821Z,45.10
2022-12-07T20:19:38.622Z,44.85
2022-12-07T20:22:06.057Z,40.55
2022-12-07T20:24:34.931Z,50.65
2022-12-07T20:27:02.515Z,52.95
2022-12-07T20:29:29.506Z,55.45
2022-12-07T20:31:57.994Z,52.88
2022-12-07T20:34:26.605Z,59.05
2022-12-07T20:36:55.091Z,61.50
2022-12-07T20:39:23.799Z,62.38
2022-12-07T20:42:09.583Z,69.35
2022-12-07T20:44:36.581Z,70.28
2022-12-07T20:47:05.237Z,58.97
2022-12-07T20:49:32.871Z,51.95
2022-12-07T20:52:12.202Z,64.10
2022-12-07T20:54:39.443Z,56.78
2022-12-07T20:57:06.936Z,57.63
2022-12-07T20:59:38.159Z,64.55
2022-12-07T21:02:11.739Z,50.13
2022-12-07T21:04:39.517Z,60.22
2022-12-07T21:07:06.940Z,58.88
2022-12-07T21:09:33.978Z,54.85
2022-12-07T21:12:01.101Z,51.72
2022-12-07T21:14:27.898Z,64.03
2022-12-07T21:16:58.289Z,67.45
2022-12-07T21:19:25.125Z,70.32
2022-12-07T21:21:52.359Z,80.47
2022-12-07T21:24:19.975Z,75.20
2022-12-07T21:26:47.012Z,81.93
2022-12-07T21:29:14.328Z,70.78
2022-12-07T21:31:42.108Z,74.18
2022-12-07T21:34:09.317Z,68.97
2022-12-07T21:36:36.855Z,72.20
2022-12-07T21:39:04.529Z,57.13
2022-12-07T21:41:34.712Z,63.35
2022-12-07T21:44:03.704Z,49.22
2022-12-07T21:46:34.076Z,60.30
2022-12-07T21:49:08.183Z,60.00
2022-12-07T21:51:35.635Z,57.78
2022-12-07T21:54:04.164Z,64.57
2022-12-07T21:56:39.942Z,73.45
2022-12-07T21:59:11.241Z,69.90
2022-12-07T22:01:40.749Z,78.78
2022-12-07T22:04:11.257Z,81.28
2022-12-07T22:06:38.459Z,76.43
2022-12-07T22:09:06.427Z,75.85
2022-12-07T22:11:34.606Z,73.95
2022-12-07T22:14:20.458Z,65.95
2022-12-07T22:16:47.169Z,72.75
2022-12-07T22:19:13.762Z,78.35
2022-12-07T22:21:40.689Z,79.28
2022-12-07T22:24:07.652Z,74.43
2022-12-07T22:26:34.299Z,86.93
2022-12-07T22:29:01.700Z,79.25
2022-12-07T22:31:28.598Z,76.93
2022-12-07T22:33:55.418Z,72.45
2022-12-07T22:36:22.201Z,76.13
2022-12-07T22:38:48.858Z,78.07
2022-12-07T22:41:27.919Z,119.75
2022-12-07T22:43:57.810Z,76.78
2022-12-07T22:46:25.442Z,80.97
2022-12-07T22:48:52.928Z,74.18
2022-12-07T22:51:37.653Z,77.30
2022-12-07T22:54:07.553Z,73.57
2022-12-07T22:56:36.610Z,80.70
2022-12-07T22:59:06.552Z,65.97
2022-12-07T23:01:33.828Z,69.68
2022-12-07T23:04:00.724Z,67.90
2022-12-07T23:06:31.390Z,61.35
2022-12-07T23:09:00.367Z,68.22
2022-12-07T23:11:48.465Z,74.38
2022-12-07T23:14:21.802Z,60.95
2022-12-07T23:16:48.717Z,62.42
2022-12-07T23:19:15.738Z,70.00
2022-12-07T23:21:43.092Z,81.68
2022-12-07T23:24:12.168Z,73.07
2022-12-07T23:26:39.186Z,66.65
2022-12-07T23:29:06.036Z,73.60
2022-12-07T23:31:32.975Z,67.25
2022-12-07T23:33:59.815Z,59.10
2022-12-07T23:36:28.561Z,66.07
2022-12-07T23:38:57.992Z,66.78
2022-12-07T23:41:27.552Z,67.57
2022-12-07T23:43:55.594Z,69.18
2022-12-07T23:46:26.203Z,69.20
2022-12-07T23:48:55.019Z,67.90
2022-12-07T23:51:22.749Z,58.88
2022-12-07T23:53:51.195Z,62.35
2022-12-07T23:56:22.864Z,54.95
2022-12-07T23:58:50.671Z,52.55
